Flood From: 24-01-2018 06:00 Until: 25-01-2018 06:00 warning for: Flood Level: Yellow info button

Although rather usual in this region, locally or potentially dangerous phenomena are expected. (such as local winds, summer thunderstorms, rising streams or high waves) Be aware and pay attention to the latest weather updates, especially if you carry out activities exposed to weather or close to a stream or shoreline. 


Meteo18 Weather Cam more information Meteo18 Weather Cam


Thunder radar more information blitzortung!


Rain radar more information rain snow radar


Visit our other weather sites:

Template documentation
and downloads

And another site



Weather Underground History page Text

Daily Summary for July 13, 2017 Units:  Both    English   Metric
« Previous Day
Next Day »
Daily Weekly Monthly Yearly Custom
  High: Low: Average:
Temperature: 77.4 °F /  25.2 °C 63 °F /  17.2 °C 68.9 °F /  20.5 °C
Dew Point: 62.2 °F /  16.8 °C 57.2 °F /  14.0 °C 60.1 °F /  15.6 °C
Humidity: 94 % 52 % 76 %
Wind Speed: 13 mph /  20.9 km/h - 2.9 mph /  4.6 km/h
Wind Gust: 17 mph /  27.4 km/h - -
Wind:- - WSW
Pressure: 30.2 in /  1022.2 hPa 30.1 in /  1019.2 hPa -
Precipitation: 0 in /  0.0 mm    
Historical Graphs
 
 
Tabular Data for July 13, 2017
Time Temperature Dew Point Pressure Wind Wind Speed Wind Gust Humidity Rainfall Rate (Hourly)
00:02 64.4 °F /  18.0 °C 61.2 °F /  16.2 °C 30.2 in /  1022.2 hPa WSW 2 mph /  3.2 km/h 4 mph /  6.4 km/h 89 % 0 in /  0.0 mm
00:12 64.2 °F /  17.9 °C 61.2 °F /  16.2 °C 30.2 in /  1022.2 hPa SSW 1 mph /  1.6 km/h 4 mph /  6.4 km/h 90 % 0 in /  0.0 mm
00:22 63.7 °F /  17.6 °C 61 °F /  16.1 °C 30.2 in /  1022.2 hPa SW 3 mph /  4.8 km/h 4 mph /  6.4 km/h 91 % 0 in /  0.0 mm
00:32 63.7 °F /  17.6 °C 61 °F /  16.1 °C 30.2 in /  1022.2 hPa SW 2 mph /  3.2 km/h 4 mph /  6.4 km/h 91 % 0 in /  0.0 mm
00:42 63.3 °F /  17.4 °C 61 °F /  16.1 °C 30.2 in /  1022.2 hPa SW 4 mph /  6.4 km/h 4 mph /  6.4 km/h 92 % 0 in /  0.0 mm
00:47 63.5 °F /  17.5 °C 61.2 °F /  16.2 °C 30.2 in /  1022.2 hPa WSW 1 mph /  1.6 km/h 5 mph /  8.0 km/h 92 % 0 in /  0.0 mm
00:52 63.5 °F /  17.5 °C 61.2 °F /  16.2 °C 30.2 in /  1022.2 hPa SW 4 mph /  6.4 km/h 6 mph /  9.7 km/h 92 % 0 in /  0.0 mm
00:57 63.7 °F /  17.6 °C 61.3 °F /  16.3 °C 30.2 in /  1022.2 hPa Calm   6 mph /  9.7 km/h 92 % 0 in /  0.0 mm
01:02 63.5 °F /  17.5 °C 61.2 °F /  16.2 °C 30.2 in /  1022.2 hPa WSW 1 mph /  1.6 km/h 6 mph /  9.7 km/h 92 % 0 in /  0.0 mm
01:12 63.5 °F /  17.5 °C 61.2 °F /  16.2 °C 30.2 in /  1022.2 hPa Calm   4 mph /  6.4 km/h 92 % 0 in /  0.0 mm
01:17 63.5 °F /  17.5 °C 61.5 °F /  16.4 °C 30.2 in /  1022.2 hPa WSW 1 mph /  1.6 km/h 4 mph /  6.4 km/h 93 % 0 in /  0.0 mm
01:22 63.5 °F /  17.5 °C 61.5 °F /  16.4 °C 30.2 in /  1022.2 hPa West 1 mph /  1.6 km/h 4 mph /  6.4 km/h 93 % 0 in /  0.0 mm
01:27 63.5 °F /  17.5 °C 61.5 °F /  16.4 °C 30.2 in /  1022.2 hPa West 2 mph /  3.2 km/h 4 mph /  6.4 km/h 93 % 0 in /  0.0 mm
01:32 63.5 °F /  17.5 °C 61.5 °F /  16.4 °C 30.2 in /  1021.9 hPa WSW 1 mph /  1.6 km/h 4 mph /  6.4 km/h 93 % 0 in /  0.0 mm
01:37 63.5 °F /  17.5 °C 61.5 °F /  16.4 °C 30.2 in /  1021.9 hPa West 1 mph /  1.6 km/h 4 mph /  6.4 km/h 93 % 0 in /  0.0 mm
01:42 63.5 °F /  17.5 °C 61.5 °F /  16.4 °C 30.2 in /  1021.9 hPa WSW 1 mph /  1.6 km/h 4 mph /  6.4 km/h 93 % 0 in /  0.0 mm
01:52 63.5 °F /  17.5 °C 61.5 °F /  16.4 °C 30.2 in /  1021.9 hPa WSW 2 mph /  3.2 km/h 4 mph /  6.4 km/h 93 % 0 in /  0.0 mm
01:57 63.7 °F /  17.6 °C 61.7 °F /  16.5 °C 30.2 in /  1021.9 hPa WSW 1 mph /  1.6 km/h 4 mph /  6.4 km/h 93 % 0 in /  0.0 mm
02:02 63.7 °F /  17.6 °C 61.7 °F /  16.5 °C 30.2 in /  1021.9 hPa WSW 4 mph /  6.4 km/h 4 mph /  6.4 km/h 93 % 0 in /  0.0 mm
02:07 63.7 °F /  17.6 °C 61.7 °F /  16.5 °C 30.2 in /  1021.9 hPa SSW 3 mph /  4.8 km/h 5 mph /  8.0 km/h 93 % 0 in /  0.0 mm
02:12 63.7 °F /  17.6 °C 61.7 °F /  16.5 °C 30.2 in /  1021.9 hPa WSW 2 mph /  3.2 km/h 5 mph /  8.0 km/h 93 % 0 in /  0.0 mm
02:17 63.7 °F /  17.6 °C 61.7 °F /  16.5 °C 30.2 in /  1021.9 hPa SW 2 mph /  3.2 km/h 5 mph /  8.0 km/h 93 % 0 in /  0.0 mm
02:22 63.5 °F /  17.5 °C 61.5 °F /  16.4 °C 30.2 in /  1021.9 hPa SW 2 mph /  3.2 km/h 5 mph /  8.0 km/h 93 % 0 in /  0.0 mm
02:32 63.3 °F /  17.4 °C 61.3 °F /  16.3 °C 30.2 in /  1021.9 hPa SW 2 mph /  3.2 km/h 3 mph /  4.8 km/h 93 % 0 in /  0.0 mm
02:37 63.3 °F /  17.4 °C 61.3 °F /  16.3 °C 30.2 in /  1021.9 hPa SW 2 mph /  3.2 km/h 5 mph /  8.0 km/h 93 % 0 in /  0.0 mm
02:42 63.3 °F /  17.4 °C 61.3 °F /  16.3 °C 30.2 in /  1021.9 hPa SW 1 mph /  1.6 km/h 5 mph /  8.0 km/h 93 % 0 in /  0.0 mm
02:47 63.3 °F /  17.4 °C 61.3 °F /  16.3 °C 30.2 in /  1021.9 hPa WSW 2 mph /  3.2 km/h 5 mph /  8.0 km/h 93 % 0 in /  0.0 mm
02:52 63.1 °F /  17.3 °C 61.2 °F /  16.2 °C 30.2 in /  1021.9 hPa Calm   5 mph /  8.0 km/h 93 % 0 in /  0.0 mm
02:57 63.1 °F /  17.3 °C 61.2 °F /  16.2 °C 30.2 in /  1021.9 hPa Calm   3 mph /  4.8 km/h 93 % 0 in /  0.0 mm
03:02 63.1 °F /  17.3 °C 61.2 °F /  16.2 °C 30.2 in /  1021.9 hPa Calm   3 mph /  4.8 km/h 93 % 0 in /  0.0 mm
03:07 63.1 °F /  17.3 °C 61.2 °F /  16.2 °C 30.2 in /  1021.9 hPa Calm   1 mph /  1.6 km/h 93 % 0 in /  0.0 mm
03:12 63.1 °F /  17.3 °C 61.3 °F /  16.3 °C 30.2 in /  1021.9 hPa Calm   4 mph /  6.4 km/h 94 % 0 in /  0.0 mm
03:17 63.1 °F /  17.3 °C 61.2 °F /  16.2 °C 30.2 in /  1021.9 hPa Calm   4 mph /  6.4 km/h 93 % 0 in /  0.0 mm
03:22 63.3 °F /  17.4 °C 61.3 °F /  16.3 °C 30.2 in /  1021.9 hPa West 1 mph /  1.6 km/h 4 mph /  6.4 km/h 93 % 0 in /  0.0 mm
03:32 63.3 °F /  17.4 °C 61.3 °F /  16.3 °C 30.2 in /  1021.6 hPa WSW 1 mph /  1.6 km/h 2 mph /  3.2 km/h 93 % 0 in /  0.0 mm
03:37 63.5 °F /  17.5 °C 61.5 °F /  16.4 °C 30.2 in /  1021.6 hPa WNW 2 mph /  3.2 km/h 3 mph /  4.8 km/h 93 % 0 in /  0.0 mm
03:42 63.5 °F /  17.5 °C 61.5 °F /  16.4 °C 30.2 in /  1021.6 hPa West 1 mph /  1.6 km/h 4 mph /  6.4 km/h 93 % 0 in /  0.0 mm
03:47 63.5 °F /  17.5 °C 61.5 °F /  16.4 °C 30.2 in /  1021.6 hPa WSW 2 mph /  3.2 km/h 4 mph /  6.4 km/h 93 % 0 in /  0.0 mm
03:52 63.3 °F /  17.4 °C 61.3 °F /  16.3 °C 30.2 in /  1021.6 hPa West 1 mph /  1.6 km/h 4 mph /  6.4 km/h 93 % 0 in /  0.0 mm
03:57 63.3 °F /  17.4 °C 61.3 °F /  16.3 °C 30.2 in /  1021.6 hPa West 1 mph /  1.6 km/h 3 mph /  4.8 km/h 93 % 0 in /  0.0 mm
04:02 63.3 °F /  17.4 °C 61.3 °F /  16.3 °C 30.2 in /  1021.6 hPa Calm   3 mph /  4.8 km/h 93 % 0 in /  0.0 mm
04:12 63.3 °F /  17.4 °C 61.3 °F /  16.3 °C 30.2 in /  1021.6 hPa Calm   2 mph /  3.2 km/h 93 % 0 in /  0.0 mm
04:17 63.3 °F /  17.4 °C 61.3 °F /  16.3 °C 30.2 in /  1021.6 hPa Calm   2 mph /  3.2 km/h 93 % 0 in /  0.0 mm
04:22 63.3 °F /  17.4 °C 61.3 °F /  16.3 °C 30.2 in /  1021.6 hPa West 1 mph /  1.6 km/h 2 mph /  3.2 km/h 93 % 0 in /  0.0 mm
04:27 63.3 °F /  17.4 °C 61 °F /  16.1 °C 30.2 in /  1021.6 hPa West 1 mph /  1.6 km/h 3 mph /  4.8 km/h 92 % 0 in /  0.0 mm
04:32 63.3 °F /  17.4 °C 61 °F /  16.1 °C 30.2 in /  1021.6 hPa SW 1 mph /  1.6 km/h 3 mph /  4.8 km/h 92 % 0 in /  0.0 mm
04:37 63.3 °F /  17.4 °C 61 °F /  16.1 °C 30.2 in /  1021.6 hPa Calm   3 mph /  4.8 km/h 92 % 0 in /  0.0 mm
04:42 63.3 °F /  17.4 °C 61 °F /  16.1 °C 30.2 in /  1021.6 hPa Calm   3 mph /  4.8 km/h 92 % 0 in /  0.0 mm
04:47 63.3 °F /  17.4 °C 61 °F /  16.1 °C 30.2 in /  1021.6 hPa Calm   2 mph /  3.2 km/h 92 % 0 in /  0.0 mm
04:52 63.3 °F /  17.4 °C 61 °F /  16.1 °C 30.2 in /  1021.6 hPa Calm   2 mph /  3.2 km/h 92 % 0 in /  0.0 mm
04:57 63.3 °F /  17.4 °C 61 °F /  16.1 °C 30.2 in /  1021.6 hPa Calm   1 mph /  1.6 km/h 92 % 0 in /  0.0 mm
05:02 63.3 °F /  17.4 °C 61 °F /  16.1 °C 30.2 in /  1021.6 hPa Calm   1 mph /  1.6 km/h 92 % 0 in /  0.0 mm
05:07 63.3 °F /  17.4 °C 61 °F /  16.1 °C 30.2 in /  1021.6 hPa WSW 2 mph /  3.2 km/h 2 mph /  3.2 km/h 92 % 0 in /  0.0 mm
05:12 63.3 °F /  17.4 °C 61 °F /  16.1 °C 30.2 in /  1021.6 hPa West 2 mph /  3.2 km/h 3 mph /  4.8 km/h 92 % 0 in /  0.0 mm
05:17 63.3 °F /  17.4 °C 61 °F /  16.1 °C 30.2 in /  1021.6 hPa WSW 1 mph /  1.6 km/h 3 mph /  4.8 km/h 92 % 0 in /  0.0 mm
05:27 63.3 °F /  17.4 °C 61 °F /  16.1 °C 30.2 in /  1021.6 hPa SW 2 mph /  3.2 km/h 3 mph /  4.8 km/h 92 % 0 in /  0.0 mm
05:32 63.3 °F /  17.4 °C 61 °F /  16.1 °C 30.2 in /  1021.6 hPa WSW 2 mph /  3.2 km/h 3 mph /  4.8 km/h 92 % 0 in /  0.0 mm
05:37 63.3 °F /  17.4 °C 61 °F /  16.1 °C 30.2 in /  1021.6 hPa West 1 mph /  1.6 km/h 4 mph /  6.4 km/h 92 % 0 in /  0.0 mm
05:42 63.3 °F /  17.4 °C 61 °F /  16.1 °C 30.2 in /  1021.6 hPa West 1 mph /  1.6 km/h 4 mph /  6.4 km/h 92 % 0 in /  0.0 mm
05:47 63.3 °F /  17.4 °C 60.6 °F /  15.9 °C 30.2 in /  1021.6 hPa SW 3 mph /  4.8 km/h 4 mph /  6.4 km/h 91 % 0 in /  0.0 mm
05:52 63.3 °F /  17.4 °C 60.6 °F /  15.9 °C 30.2 in /  1021.6 hPa WSW 1 mph /  1.6 km/h 3 mph /  4.8 km/h 91 % 0 in /  0.0 mm
05:57 63.3 °F /  17.4 °C 60.6 °F /  15.9 °C 30.2 in /  1021.6 hPa Calm   3 mph /  4.8 km/h 91 % 0 in /  0.0 mm
06:02 63.3 °F /  17.4 °C 60.6 °F /  15.9 °C 30.2 in /  1021.6 hPa Calm   4 mph /  6.4 km/h 91 % 0 in /  0.0 mm
06:07 63.1 °F /  17.3 °C 60.4 °F /  15.8 °C 30.2 in /  1021.6 hPa Calm   4 mph /  6.4 km/h 91 % 0 in /  0.0 mm
06:12 63.1 °F /  17.3 °C 60.4 °F /  15.8 °C 30.2 in /  1021.6 hPa Calm   4 mph /  6.4 km/h 91 % 0 in /  0.0 mm
06:17 63.1 °F /  17.3 °C 60.4 °F /  15.8 °C 30.2 in /  1021.6 hPa Calm   3 mph /  4.8 km/h 91 % 0 in /  0.0 mm
06:22 63.1 °F /  17.3 °C 60.4 °F /  15.8 °C 30.2 in /  1021.6 hPa WSW 3 mph /  4.8 km/h 4 mph /  6.4 km/h 91 % 0 in /  0.0 mm
06:32 63.1 °F /  17.3 °C 60.4 °F /  15.8 °C 30.2 in /  1021.6 hPa Calm   5 mph /  8.0 km/h 91 % 0 in /  0.0 mm
06:37 63 °F /  17.2 °C 60.6 °F /  15.9 °C 30.2 in /  1021.6 hPa WSW 1 mph /  1.6 km/h 5 mph /  8.0 km/h 92 % 0 in /  0.0 mm
06:42 63 °F /  17.2 °C 60.6 °F /  15.9 °C 30.2 in /  1021.6 hPa SW 2 mph /  3.2 km/h 4 mph /  6.4 km/h 92 % 0 in /  0.0 mm
06:47 63 °F /  17.2 °C 60.6 °F /  15.9 °C 30.2 in /  1021.6 hPa WSW 1 mph /  1.6 km/h 4 mph /  6.4 km/h 92 % 0 in /  0.0 mm
06:52 63 °F /  17.2 °C 60.6 °F /  15.9 °C 30.2 in /  1021.6 hPa Calm   5 mph /  8.0 km/h 92 % 0 in /  0.0 mm
06:57 63 °F /  17.2 °C 60.6 °F /  15.9 °C 30.2 in /  1021.6 hPa SW 1 mph /  1.6 km/h 5 mph /  8.0 km/h 92 % 0 in /  0.0 mm
07:02 63 °F /  17.2 °C 60.6 °F /  15.9 °C 30.2 in /  1021.6 hPa WNW 2 mph /  3.2 km/h 5 mph /  8.0 km/h 92 % 0 in /  0.0 mm
07:07 63 °F /  17.2 °C 60.6 °F /  15.9 °C 30.2 in /  1021.6 hPa West 1 mph /  1.6 km/h 5 mph /  8.0 km/h 92 % 0 in /  0.0 mm
07:12 63.1 °F /  17.3 °C 60.8 °F /  16.0 °C 30.2 in /  1021.9 hPa Calm   4 mph /  6.4 km/h 92 % 0 in /  0.0 mm
07:17 63.1 °F /  17.3 °C 60.8 °F /  16.0 °C 30.2 in /  1021.6 hPa Calm   4 mph /  6.4 km/h 92 % 0 in /  0.0 mm
07:22 63.1 °F /  17.3 °C 60.8 °F /  16.0 °C 30.2 in /  1021.6 hPa Calm   3 mph /  4.8 km/h 92 % 0 in /  0.0 mm
07:27 63.1 °F /  17.3 °C 60.8 °F /  16.0 °C 30.2 in /  1021.6 hPa Calm   2 mph /  3.2 km/h 92 % 0 in /  0.0 mm
07:32 63.1 °F /  17.3 °C 60.8 °F /  16.0 °C 30.2 in /  1021.6 hPa Calm     92 % 0 in /  0.0 mm
07:37 63.1 °F /  17.3 °C 60.8 °F /  16.0 °C 30.2 in /  1021.6 hPa Calm     92 % 0 in /  0.0 mm
07:42 63.3 °F /  17.4 °C 61 °F /  16.1 °C 30.2 in /  1021.6 hPa Calm     92 % 0 in /  0.0 mm
07:47 63.3 °F /  17.4 °C 61 °F /  16.1 °C 30.2 in /  1021.9 hPa West 1 mph /  1.6 km/h   92 % 0 in /  0.0 mm
07:52 63.3 °F /  17.4 °C 60.6 °F /  15.9 °C 30.2 in /  1021.6 hPa West 2 mph /  3.2 km/h 4 mph /  6.4 km/h 91 % 0 in /  0.0 mm
07:57 63.5 °F /  17.5 °C 60.8 °F /  16.0 °C 30.2 in /  1021.9 hPa WNW 3 mph /  4.8 km/h 4 mph /  6.4 km/h 91 % 0 in /  0.0 mm
08:02 63.7 °F /  17.6 °C 61 °F /  16.1 °C 30.2 in /  1021.9 hPa WSW 2 mph /  3.2 km/h 4 mph /  6.4 km/h 91 % 0 in /  0.0 mm
08:12 63.7 °F /  17.6 °C 61 °F /  16.1 °C 30.2 in /  1021.9 hPa West 1 mph /  1.6 km/h 4 mph /  6.4 km/h 91 % 0 in /  0.0 mm
08:22 64 °F /  17.8 °C 61 °F /  16.1 °C 30.2 in /  1021.9 hPa WNW 2 mph /  3.2 km/h 5 mph /  8.0 km/h 90 % 0 in /  0.0 mm
08:32 64.2 °F /  17.9 °C 61.2 °F /  16.2 °C 30.2 in /  1021.9 hPa West 1 mph /  1.6 km/h 5 mph /  8.0 km/h 90 % 0 in /  0.0 mm
08:37 64.2 °F /  17.9 °C 61 °F /  16.1 °C 30.2 in /  1021.9 hPa West 2 mph /  3.2 km/h 5 mph /  8.0 km/h 89 % 0 in /  0.0 mm
08:42 64.4 °F /  18.0 °C 61.2 °F /  16.2 °C 30.2 in /  1021.9 hPa West 2 mph /  3.2 km/h 4 mph /  6.4 km/h 89 % 0 in /  0.0 mm
08:47 64.6 °F /  18.1 °C 61.3 °F /  16.3 °C 30.2 in /  1021.9 hPa WSW 3 mph /  4.8 km/h 5 mph /  8.0 km/h 89 % 0 in /  0.0 mm
08:52 64.6 °F /  18.1 °C 61 °F /  16.1 °C 30.2 in /  1021.9 hPa West 3 mph /  4.8 km/h 5 mph /  8.0 km/h 88 % 0 in /  0.0 mm
08:57 64.9 °F /  18.3 °C 61.3 °F /  16.3 °C 30.2 in /  1021.9 hPa WNW 4 mph /  6.4 km/h 5 mph /  8.0 km/h 88 % 0 in /  0.0 mm
09:02 64.9 °F /  18.3 °C 61.3 °F /  16.3 °C 30.2 in /  1021.9 hPa Calm   5 mph /  8.0 km/h 88 % 0 in /  0.0 mm
09:07 65.1 °F /  18.4 °C 61.2 °F /  16.2 °C 30.2 in /  1021.9 hPa WNW 3 mph /  4.8 km/h 5 mph /  8.0 km/h 87 % 0 in /  0.0 mm
09:12 64.9 °F /  18.3 °C 60.6 °F /  15.9 °C 30.2 in /  1021.9 hPa SW 5 mph /  8.0 km/h 5 mph /  8.0 km/h 86 % 0 in /  0.0 mm
09:17 65.1 °F /  18.4 °C 61.2 °F /  16.2 °C 30.2 in /  1021.9 hPa WNW 3 mph /  4.8 km/h 6 mph /  9.7 km/h 87 % 0 in /  0.0 mm
09:22 65.3 °F /  18.5 °C 61.3 °F /  16.3 °C 30.2 in /  1022.2 hPa WNW 3 mph /  4.8 km/h 6 mph /  9.7 km/h 87 % 0 in /  0.0 mm
09:27 65.1 °F /  18.4 °C 60.8 °F /  16.0 °C 30.2 in /  1022.2 hPa West 5 mph /  8.0 km/h 6 mph /  9.7 km/h 86 % 0 in /  0.0 mm
09:37 65.5 °F /  18.6 °C 61.2 °F /  16.2 °C 30.2 in /  1021.9 hPa West 3 mph /  4.8 km/h 5 mph /  8.0 km/h 86 % 0 in /  0.0 mm
09:42 65.7 °F /  18.7 °C 61.3 °F /  16.3 °C 30.2 in /  1021.9 hPa SW 3 mph /  4.8 km/h 5 mph /  8.0 km/h 86 % 0 in /  0.0 mm
09:47 65.7 °F /  18.7 °C 61.3 °F /  16.3 °C 30.2 in /  1021.9 hPa West 3 mph /  4.8 km/h 7 mph /  11.3 km/h 86 % 0 in /  0.0 mm
09:52 65.8 °F /  18.8 °C 61.5 °F /  16.4 °C 30.2 in /  1021.9 hPa WSW 3 mph /  4.8 km/h 7 mph /  11.3 km/h 86 % 0 in /  0.0 mm
09:57 66 °F /  18.9 °C 61.3 °F /  16.3 °C 30.2 in /  1021.9 hPa West 4 mph /  6.4 km/h 7 mph /  11.3 km/h 85 % 0 in /  0.0 mm
10:02 66.2 °F /  19.0 °C 61.5 °F /  16.4 °C 30.2 in /  1021.9 hPa West 2 mph /  3.2 km/h 7 mph /  11.3 km/h 85 % 0 in /  0.0 mm
10:07 66.6 °F /  19.2 °C 61.9 °F /  16.6 °C 30.2 in /  1021.9 hPa NW 1 mph /  1.6 km/h 6 mph /  9.7 km/h 85 % 0 in /  0.0 mm
10:12 66.6 °F /  19.2 °C 61.5 °F /  16.4 °C 30.2 in /  1021.9 hPa SSW 3 mph /  4.8 km/h 6 mph /  9.7 km/h 84 % 0 in /  0.0 mm
10:17 66.7 °F /  19.3 °C 62.1 °F /  16.7 °C 30.2 in /  1021.9 hPa SW 2 mph /  3.2 km/h 6 mph /  9.7 km/h 85 % 0 in /  0.0 mm
10:22 67.1 °F /  19.5 °C 62.1 °F /  16.7 °C 30.2 in /  1021.9 hPa SSW 1 mph /  1.6 km/h 6 mph /  9.7 km/h 84 % 0 in /  0.0 mm
10:32 67.3 °F /  19.6 °C 62.2 °F /  16.8 °C 30.2 in /  1021.9 hPa Calm   7 mph /  11.3 km/h 84 % 0 in /  0.0 mm
10:37 67.6 °F /  19.8 °C 61.9 °F /  16.6 °C 30.2 in /  1021.9 hPa West 3 mph /  4.8 km/h 7 mph /  11.3 km/h 82 % 0 in /  0.0 mm
10:42 68.2 °F /  20.1 °C 61.3 °F /  16.3 °C 30.2 in /  1021.9 hPa WNW 3 mph /  4.8 km/h 7 mph /  11.3 km/h 79 % 0 in /  0.0 mm
10:47 68.4 °F /  20.2 °C 60.8 °F /  16.0 °C 30.2 in /  1021.9 hPa West 4 mph /  6.4 km/h 8 mph /  12.9 km/h 77 % 0 in /  0.0 mm
10:52 68.9 °F /  20.5 °C 61.7 °F /  16.5 °C 30.2 in /  1021.6 hPa Calm   8 mph /  12.9 km/h 78 % 0 in /  0.0 mm
10:57 69.1 °F /  20.6 °C 61.2 °F /  16.2 °C 30.2 in /  1021.6 hPa West 2 mph /  3.2 km/h 8 mph /  12.9 km/h 76 % 0 in /  0.0 mm
11:02 69.4 °F /  20.8 °C 61.9 °F /  16.6 °C 30.2 in /  1021.6 hPa SW 7 mph /  11.3 km/h 8 mph /  12.9 km/h 77 % 0 in /  0.0 mm
11:12 69.3 °F /  20.7 °C 61 °F /  16.1 °C 30.2 in /  1021.6 hPa WSW 3 mph /  4.8 km/h 8 mph /  12.9 km/h 75 % 0 in /  0.0 mm
11:17 69.3 °F /  20.7 °C 60.6 °F /  15.9 °C 30.2 in /  1021.6 hPa WNW 2 mph /  3.2 km/h 8 mph /  12.9 km/h 74 % 0 in /  0.0 mm
11:22 70 °F /  21.1 °C 61.3 °F /  16.3 °C 30.2 in /  1021.6 hPa Calm   8 mph /  12.9 km/h 74 % 0 in /  0.0 mm
11:32 70.7 °F /  21.5 °C 60.4 °F /  15.8 °C 30.2 in /  1021.6 hPa WNW 1 mph /  1.6 km/h 6 mph /  9.7 km/h 70 % 0 in /  0.0 mm
11:37 70.9 °F /  21.6 °C 59.4 °F /  15.2 °C 30.2 in /  1021.6 hPa WSW 5 mph /  8.0 km/h 8 mph /  12.9 km/h 67 % 0 in /  0.0 mm
11:42 71.6 °F /  22.0 °C 61.3 °F /  16.3 °C 30.2 in /  1021.2 hPa WSW 4 mph /  6.4 km/h 8 mph /  12.9 km/h 70 % 0 in /  0.0 mm
11:47 72.1 °F /  22.3 °C 59.7 °F /  15.4 °C 30.2 in /  1021.2 hPa SW 3 mph /  4.8 km/h 8 mph /  12.9 km/h 65 % 0 in /  0.0 mm
11:52 72.1 °F /  22.3 °C 59.4 °F /  15.2 °C 30.2 in /  1021.2 hPa West 6 mph /  9.7 km/h 8 mph /  12.9 km/h 64 % 0 in /  0.0 mm
11:57 71.6 °F /  22.0 °C 58.8 °F /  14.9 °C 30.2 in /  1021.2 hPa WSW 3 mph /  4.8 km/h 9 mph /  14.5 km/h 64 % 0 in /  0.0 mm
12:02 71.4 °F /  21.9 °C 59 °F /  15.0 °C 30.2 in /  1021.2 hPa SSW 4 mph /  6.4 km/h 9 mph /  14.5 km/h 65 % 0 in /  0.0 mm
12:12 70.9 °F /  21.6 °C 59.4 °F /  15.2 °C 30.2 in /  1021.2 hPa West 2 mph /  3.2 km/h 9 mph /  14.5 km/h 67 % 0 in /  0.0 mm
12:17 70.9 °F /  21.6 °C 59 °F /  15.0 °C 30.2 in /  1021.2 hPa SW 5 mph /  8.0 km/h 9 mph /  14.5 km/h 66 % 0 in /  0.0 mm
12:22 70.9 °F /  21.6 °C 59.7 °F /  15.4 °C 30.2 in /  1021.2 hPa SW 1 mph /  1.6 km/h 8 mph /  12.9 km/h 68 % 0 in /  0.0 mm
12:27 71.1 °F /  21.7 °C 60.4 °F /  15.8 °C 30.2 in /  1021.2 hPa Calm   8 mph /  12.9 km/h 69 % 0 in /  0.0 mm
12:32 71.4 °F /  21.9 °C 59.5 °F /  15.3 °C 30.2 in /  1021.2 hPa West 3 mph /  4.8 km/h 8 mph /  12.9 km/h 66 % 0 in /  0.0 mm
12:42 71.8 °F /  22.1 °C 60.3 °F /  15.7 °C 30.2 in /  1020.9 hPa WSW 8 mph /  12.9 km/h 9 mph /  14.5 km/h 67 % 0 in /  0.0 mm
12:47 71.4 °F /  21.9 °C 60.3 °F /  15.7 °C 30.2 in /  1021.2 hPa SW 1 mph /  1.6 km/h 9 mph /  14.5 km/h 68 % 0 in /  0.0 mm
12:52 71.4 °F /  21.9 °C 60.3 °F /  15.7 °C 30.2 in /  1020.9 hPa WSW 5 mph /  8.0 km/h 10 mph /  16.1 km/h 68 % 0 in /  0.0 mm
12:57 71.8 °F /  22.1 °C 60.6 °F /  15.9 °C 30.2 in /  1020.9 hPa West 8 mph /  12.9 km/h 10 mph /  16.1 km/h 68 % 0 in /  0.0 mm
13:02 71.6 °F /  22.0 °C 60.1 °F /  15.6 °C 30.2 in /  1021.2 hPa SW 8 mph /  12.9 km/h 10 mph /  16.1 km/h 67 % 0 in /  0.0 mm
13:12 72 °F /  22.2 °C 60.8 °F /  16.0 °C 30.2 in /  1020.9 hPa SSW 4 mph /  6.4 km/h 11 mph /  17.7 km/h 68 % 0 in /  0.0 mm
13:17 72.5 °F /  22.5 °C 61 °F /  16.1 °C 30.2 in /  1020.9 hPa WNW 5 mph /  8.0 km/h 11 mph /  17.7 km/h 67 % 0 in /  0.0 mm
13:22 73.2 °F /  22.9 °C 61.2 °F /  16.2 °C 30.2 in /  1020.9 hPa SSW 3 mph /  4.8 km/h 11 mph /  17.7 km/h 66 % 0 in /  0.0 mm
13:32 73.9 °F /  23.3 °C 60.1 °F /  15.6 °C 30.2 in /  1020.9 hPa WSW 6 mph /  9.7 km/h 11 mph /  17.7 km/h 62 % 0 in /  0.0 mm
13:37 74.1 °F /  23.4 °C 61.2 °F /  16.2 °C 30.2 in /  1020.9 hPa SW 8 mph /  12.9 km/h 11 mph /  17.7 km/h 64 % 0 in /  0.0 mm
13:47 73.6 °F /  23.1 °C 60.3 °F /  15.7 °C 30.2 in /  1020.9 hPa SW 1 mph /  1.6 km/h 12 mph /  19.3 km/h 63 % 0 in /  0.0 mm
13:52 73.2 °F /  22.9 °C 59 °F /  15.0 °C 30.2 in /  1020.9 hPa SSW 4 mph /  6.4 km/h 12 mph /  19.3 km/h 61 % 0 in /  0.0 mm
13:57 73.4 °F /  23.0 °C 60.1 °F /  15.6 °C 30.2 in /  1020.9 hPa WSW 5 mph /  8.0 km/h 9 mph /  14.5 km/h 63 % 0 in /  0.0 mm
14:02 73.8 °F /  23.2 °C 61.3 °F /  16.3 °C 30.2 in /  1020.9 hPa SW 7 mph /  11.3 km/h 10 mph /  16.1 km/h 65 % 0 in /  0.0 mm
14:12 73.2 °F /  22.9 °C 61.5 °F /  16.4 °C 30.1 in /  1020.5 hPa WSW 11 mph /  17.7 km/h 11 mph /  17.7 km/h 67 % 0 in /  0.0 mm
14:17 73.8 °F /  23.2 °C 60.8 °F /  16.0 °C 30.1 in /  1020.5 hPa SW 2 mph /  3.2 km/h 11 mph /  17.7 km/h 64 % 0 in /  0.0 mm
14:22 73.6 °F /  23.1 °C 59.7 °F /  15.4 °C 30.1 in /  1020.5 hPa WSW 8 mph /  12.9 km/h 11 mph /  17.7 km/h 62 % 0 in /  0.0 mm
14:32 73.9 °F /  23.3 °C 59.7 °F /  15.4 °C 30.1 in /  1020.5 hPa WSW 4 mph /  6.4 km/h 12 mph /  19.3 km/h 61 % 0 in /  0.0 mm
14:37 74.5 °F /  23.6 °C 59.7 °F /  15.4 °C 30.1 in /  1020.5 hPa West 3 mph /  4.8 km/h 12 mph /  19.3 km/h 60 % 0 in /  0.0 mm
14:42 74.1 °F /  23.4 °C 59.7 °F /  15.4 °C 30.1 in /  1020.5 hPa West 5 mph /  8.0 km/h 11 mph /  17.7 km/h 61 % 0 in /  0.0 mm
14:52 73.9 °F /  23.3 °C 59.7 °F /  15.4 °C 30.1 in /  1020.5 hPa WNW 6 mph /  9.7 km/h 12 mph /  19.3 km/h 61 % 0 in /  0.0 mm
14:57 74.7 °F /  23.7 °C 60.3 °F /  15.7 °C 30.1 in /  1020.2 hPa WSW 8 mph /  12.9 km/h 12 mph /  19.3 km/h 61 % 0 in /  0.0 mm
15:02 75 °F /  23.9 °C 59.7 °F /  15.4 °C 30.1 in /  1020.5 hPa West 6 mph /  9.7 km/h 13 mph /  20.9 km/h 59 % 0 in /  0.0 mm
15:07 75.4 °F /  24.1 °C 60.1 °F /  15.6 °C 30.1 in /  1020.2 hPa West 11 mph /  17.7 km/h 13 mph /  20.9 km/h 59 % 0 in /  0.0 mm
15:12 75.4 °F /  24.1 °C 59.5 °F /  15.3 °C 30.1 in /  1020.5 hPa West 4 mph /  6.4 km/h 13 mph /  20.9 km/h 58 % 0 in /  0.0 mm
15:17 75.7 °F /  24.3 °C 59.9 °F /  15.5 °C 30.1 in /  1020.2 hPa WNW 5 mph /  8.0 km/h 13 mph /  20.9 km/h 58 % 0 in /  0.0 mm
15:22 75.9 °F /  24.4 °C 59.2 °F /  15.1 °C 30.1 in /  1020.2 hPa Calm   13 mph /  20.9 km/h 56 % 0 in /  0.0 mm
15:27 76.6 °F /  24.8 °C 59.7 °F /  15.4 °C 30.1 in /  1020.2 hPa WNW 7 mph /  11.3 km/h 12 mph /  19.3 km/h 56 % 0 in /  0.0 mm
15:32 76.8 °F /  24.9 °C 59.9 °F /  15.5 °C 30.1 in /  1020.2 hPa WSW 12 mph /  19.3 km/h 12 mph /  19.3 km/h 56 % 0 in /  0.0 mm
15:42 75.2 °F /  24.0 °C 59 °F /  15.0 °C 30.1 in /  1020.2 hPa WSW 4 mph /  6.4 km/h 12 mph /  19.3 km/h 57 % 0 in /  0.0 mm
15:47 75 °F /  23.9 °C 59.2 °F /  15.1 °C 30.1 in /  1019.9 hPa SSW 2 mph /  3.2 km/h 12 mph /  19.3 km/h 58 % 0 in /  0.0 mm
15:52 75.4 °F /  24.1 °C 60.1 °F /  15.6 °C 30.1 in /  1019.9 hPa WSW 3 mph /  4.8 km/h 12 mph /  19.3 km/h 59 % 0 in /  0.0 mm
15:57 75.6 °F /  24.2 °C 59.2 °F /  15.1 °C 30.1 in /  1019.9 hPa West 4 mph /  6.4 km/h 12 mph /  19.3 km/h 57 % 0 in /  0.0 mm
16:02 75.6 °F /  24.2 °C 59.7 °F /  15.4 °C 30.1 in /  1019.9 hPa West 7 mph /  11.3 km/h 12 mph /  19.3 km/h 58 % 0 in /  0.0 mm
16:07 75.4 °F /  24.1 °C 58.1 °F /  14.5 °C 30.1 in /  1019.9 hPa WNW 7 mph /  11.3 km/h 12 mph /  19.3 km/h 55 % 0 in /  0.0 mm
16:12 75.4 °F /  24.1 °C 59.5 °F /  15.3 °C 30.1 in /  1019.9 hPa West 13 mph /  20.9 km/h 17 mph /  27.4 km/h 58 % 0 in /  0.0 mm
16:17 76.3 °F /  24.6 °C 60.4 °F /  15.8 °C 30.1 in /  1019.9 hPa SW 6 mph /  9.7 km/h 17 mph /  27.4 km/h 58 % 0 in /  0.0 mm
16:22 76.6 °F /  24.8 °C 61.7 °F /  16.5 °C 30.1 in /  1019.9 hPa West 6 mph /  9.7 km/h 14 mph /  22.5 km/h 60 % 0 in /  0.0 mm
16:32 76.5 °F /  24.7 °C 58.6 °F /  14.8 °C 30.1 in /  1019.9 hPa WSW 10 mph /  16.1 km/h 14 mph /  22.5 km/h 54 % 0 in /  0.0 mm
16:42 76.3 °F /  24.6 °C 57.9 °F /  14.4 °C 30.1 in /  1019.9 hPa WNW 7 mph /  11.3 km/h 13 mph /  20.9 km/h 53 % 0 in /  0.0 mm
16:47 76.3 °F /  24.6 °C 59 °F /  15.0 °C 30.1 in /  1019.9 hPa West 3 mph /  4.8 km/h 14 mph /  22.5 km/h 55 % 0 in /  0.0 mm
16:52 75.9 °F /  24.4 °C 58.1 °F /  14.5 °C 30.1 in /  1019.9 hPa WNW 9 mph /  14.5 km/h 14 mph /  22.5 km/h 54 % 0 in /  0.0 mm
16:57 75.7 °F /  24.3 °C 58.5 °F /  14.7 °C 30.1 in /  1019.9 hPa WSW 7 mph /  11.3 km/h 13 mph /  20.9 km/h 55 % 0 in /  0.0 mm
17:02 76.3 °F /  24.6 °C 58.5 °F /  14.7 °C 30.1 in /  1019.9 hPa West 9 mph /  14.5 km/h 13 mph /  20.9 km/h 54 % 0 in /  0.0 mm
17:12 77.2 °F /  25.1 °C 58.6 °F /  14.8 °C 30.1 in /  1019.9 hPa WNW 6 mph /  9.7 km/h 16 mph /  25.7 km/h 53 % 0 in /  0.0 mm
17:17 76.8 °F /  24.9 °C 58.5 °F /  14.7 °C 30.1 in /  1019.9 hPa SW 4 mph /  6.4 km/h 16 mph /  25.7 km/h 53 % 0 in /  0.0 mm
17:22 76.6 °F /  24.8 °C 58.3 °F /  14.6 °C 30.1 in /  1019.9 hPa West 8 mph /  12.9 km/h 14 mph /  22.5 km/h 53 % 0 in /  0.0 mm
17:27 76.1 °F /  24.5 °C 57.7 °F /  14.3 °C 30.1 in /  1019.9 hPa WNW 9 mph /  14.5 km/h 11 mph /  17.7 km/h 53 % 0 in /  0.0 mm
17:32 76.8 °F /  24.9 °C 57.9 °F /  14.4 °C 30.1 in /  1019.9 hPa WSW 9 mph /  14.5 km/h 13 mph /  20.9 km/h 52 % 0 in /  0.0 mm
17:42 76.5 °F /  24.7 °C 57.6 °F /  14.2 °C 30.1 in /  1019.9 hPa SW 3 mph /  4.8 km/h 13 mph /  20.9 km/h 52 % 0 in /  0.0 mm
17:47 76.5 °F /  24.7 °C 58.1 °F /  14.5 °C 30.1 in /  1019.9 hPa WNW 7 mph /  11.3 km/h 12 mph /  19.3 km/h 53 % 0 in /  0.0 mm
17:52 76.1 °F /  24.5 °C 57.7 °F /  14.3 °C 30.1 in /  1019.5 hPa West 4 mph /  6.4 km/h 12 mph /  19.3 km/h 53 % 0 in /  0.0 mm
17:57 76.1 °F /  24.5 °C 57.2 °F /  14.0 °C 30.1 in /  1019.5 hPa WSW 8 mph /  12.9 km/h 12 mph /  19.3 km/h 52 % 0 in /  0.0 mm
18:02 75.9 °F /  24.4 °C 57.6 °F /  14.2 °C 30.1 in /  1019.5 hPa West 4 mph /  6.4 km/h 12 mph /  19.3 km/h 53 % 0 in /  0.0 mm
18:07 76.3 °F /  24.6 °C 58.5 °F /  14.7 °C 30.1 in /  1019.5 hPa NNW 3 mph /  4.8 km/h 12 mph /  19.3 km/h 54 % 0 in /  0.0 mm
18:12 77.4 °F /  25.2 °C 58.8 °F /  14.9 °C 30.1 in /  1019.5 hPa WSW 6 mph /  9.7 km/h 12 mph /  19.3 km/h 53 % 0 in /  0.0 mm
18:17 77.2 °F /  25.1 °C 58.3 °F /  14.6 °C 30.1 in /  1019.5 hPa SW 5 mph /  8.0 km/h 12 mph /  19.3 km/h 52 % 0 in /  0.0 mm
18:22 77 °F /  25.0 °C 59 °F /  15.0 °C 30.1 in /  1019.5 hPa SW 4 mph /  6.4 km/h 13 mph /  20.9 km/h 54 % 0 in /  0.0 mm
18:32 76.3 °F /  24.6 °C 57.9 °F /  14.4 °C 30.1 in /  1019.5 hPa West 4 mph /  6.4 km/h 13 mph /  20.9 km/h 53 % 0 in /  0.0 mm
18:37 76.5 °F /  24.7 °C 58.1 °F /  14.5 °C 30.1 in /  1019.2 hPa SSW 2 mph /  3.2 km/h 13 mph /  20.9 km/h 53 % 0 in /  0.0 mm
18:42 76.6 °F /  24.8 °C 58.8 °F /  14.9 °C 30.1 in /  1019.5 hPa WNW 9 mph /  14.5 km/h 13 mph /  20.9 km/h 54 % 0 in /  0.0 mm
18:52 76.5 °F /  24.7 °C 58.6 °F /  14.8 °C 30.1 in /  1019.5 hPa West 5 mph /  8.0 km/h 12 mph /  19.3 km/h 54 % 0 in /  0.0 mm
19:02 77.2 °F /  25.1 °C 58.3 °F /  14.6 °C 30.1 in /  1019.5 hPa West 6 mph /  9.7 km/h 12 mph /  19.3 km/h 52 % 0 in /  0.0 mm
19:12 76.3 °F /  24.6 °C 58.5 °F /  14.7 °C 30.1 in /  1019.5 hPa West 5 mph /  8.0 km/h 14 mph /  22.5 km/h 54 % 0 in /  0.0 mm
19:17 76.5 °F /  24.7 °C 58.6 °F /  14.8 °C 30.1 in /  1019.5 hPa West 7 mph /  11.3 km/h 14 mph /  22.5 km/h 54 % 0 in /  0.0 mm
19:22 76.3 °F /  24.6 °C 58.5 °F /  14.7 °C 30.1 in /  1019.2 hPa West 4 mph /  6.4 km/h 14 mph /  22.5 km/h 54 % 0 in /  0.0 mm
19:32 76.3 °F /  24.6 °C 58.5 °F /  14.7 °C 30.1 in /  1019.5 hPa WSW 4 mph /  6.4 km/h 15 mph /  24.1 km/h 54 % 0 in /  0.0 mm
19:37 76.3 °F /  24.6 °C 58.5 °F /  14.7 °C 30.1 in /  1019.5 hPa WNW 6 mph /  9.7 km/h 15 mph /  24.1 km/h 54 % 0 in /  0.0 mm
19:42 76.3 °F /  24.6 °C 58.5 °F /  14.7 °C 30.1 in /  1019.5 hPa West 9 mph /  14.5 km/h 15 mph /  24.1 km/h 54 % 0 in /  0.0 mm
19:47 75.7 °F /  24.3 °C 57.9 °F /  14.4 °C 30.1 in /  1019.5 hPa WNW 7 mph /  11.3 km/h 12 mph /  19.3 km/h 54 % 0 in /  0.0 mm
19:52 75.4 °F /  24.1 °C 58.1 °F /  14.5 °C 30.1 in /  1019.5 hPa NNW 4 mph /  6.4 km/h 11 mph /  17.7 km/h 55 % 0 in /  0.0 mm
20:02 74.5 °F /  23.6 °C 58.3 °F /  14.6 °C 30.1 in /  1019.5 hPa WSW 8 mph /  12.9 km/h 11 mph /  17.7 km/h 57 % 0 in /  0.0 mm
20:12 73.9 °F /  23.3 °C 58.3 °F /  14.6 °C 30.1 in /  1019.5 hPa WSW 4 mph /  6.4 km/h 9 mph /  14.5 km/h 58 % 0 in /  0.0 mm
20:17 74.5 °F /  23.6 °C 58.3 °F /  14.6 °C 30.1 in /  1019.5 hPa West 2 mph /  3.2 km/h 9 mph /  14.5 km/h 57 % 0 in /  0.0 mm
20:22 74.7 °F /  23.7 °C 57.9 °F /  14.4 °C 30.1 in /  1019.5 hPa West 4 mph /  6.4 km/h 11 mph /  17.7 km/h 56 % 0 in /  0.0 mm
20:32 74.8 °F /  23.8 °C 58.1 °F /  14.5 °C 30.1 in /  1019.5 hPa West 8 mph /  12.9 km/h 11 mph /  17.7 km/h 56 % 0 in /  0.0 mm
20:37 74.5 °F /  23.6 °C 58.8 °F /  14.9 °C 30.1 in /  1019.5 hPa WSW 8 mph /  12.9 km/h 11 mph /  17.7 km/h 58 % 0 in /  0.0 mm
20:42 74.1 °F /  23.4 °C 58.8 °F /  14.9 °C 30.1 in /  1019.5 hPa West 2 mph /  3.2 km/h 11 mph /  17.7 km/h 59 % 0 in /  0.0 mm
20:47 73.9 °F /  23.3 °C 58.6 °F /  14.8 °C 30.1 in /  1019.5 hPa WSW 2 mph /  3.2 km/h 10 mph /  16.1 km/h 59 % 0 in /  0.0 mm
20:52 73.6 °F /  23.1 °C 58.8 °F /  14.9 °C 30.1 in /  1019.5 hPa WSW 1 mph /  1.6 km/h 10 mph /  16.1 km/h 60 % 0 in /  0.0 mm
20:57 73 °F /  22.8 °C 58.3 °F /  14.6 °C 30.1 in /  1019.5 hPa SW 4 mph /  6.4 km/h 9 mph /  14.5 km/h 60 % 0 in /  0.0 mm
21:02 72.7 °F /  22.6 °C 58.5 °F /  14.7 °C 30.1 in /  1019.5 hPa SW 1 mph /  1.6 km/h 6 mph /  9.7 km/h 61 % 0 in /  0.0 mm
21:07 72.3 °F /  22.4 °C 59 °F /  15.0 °C 30.1 in /  1019.5 hPa West 2 mph /  3.2 km/h 6 mph /  9.7 km/h 63 % 0 in /  0.0 mm
21:12 72 °F /  22.2 °C 59.2 °F /  15.1 °C 30.1 in /  1019.5 hPa WSW 1 mph /  1.6 km/h 6 mph /  9.7 km/h 64 % 0 in /  0.0 mm
21:17 71.6 °F /  22.0 °C 58.8 °F /  14.9 °C 30.1 in /  1019.5 hPa West 1 mph /  1.6 km/h 4 mph /  6.4 km/h 64 % 0 in /  0.0 mm
21:22 71.4 °F /  21.9 °C 59 °F /  15.0 °C 30.1 in /  1019.5 hPa Calm   3 mph /  4.8 km/h 65 % 0 in /  0.0 mm
21:32 70.9 °F /  21.6 °C 59 °F /  15.0 °C 30.1 in /  1019.5 hPa Calm   2 mph /  3.2 km/h 66 % 0 in /  0.0 mm
21:37 70.5 °F /  21.4 °C 59 °F /  15.0 °C 30.1 in /  1019.9 hPa Calm   2 mph /  3.2 km/h 67 % 0 in /  0.0 mm
21:42 70.2 °F /  21.2 °C 58.6 °F /  14.8 °C 30.1 in /  1019.9 hPa Calm   5 mph /  8.0 km/h 67 % 0 in /  0.0 mm
21:47 69.8 °F /  21.0 °C 58.8 °F /  14.9 °C 30.1 in /  1019.9 hPa Calm   5 mph /  8.0 km/h 68 % 0 in /  0.0 mm
21:52 69.8 °F /  21.0 °C 58.8 °F /  14.9 °C 30.1 in /  1019.9 hPa Calm   5 mph /  8.0 km/h 68 % 0 in /  0.0 mm
21:57 69.6 °F /  20.9 °C 58.6 °F /  14.8 °C 30.1 in /  1019.9 hPa Calm   4 mph /  6.4 km/h 68 % 0 in /  0.0 mm
22:02 69.6 °F /  20.9 °C 59 °F /  15.0 °C 30.1 in /  1019.9 hPa WNW 2 mph /  3.2 km/h 3 mph /  4.8 km/h 69 % 0 in /  0.0 mm
22:12 69.3 °F /  20.7 °C 59 °F /  15.0 °C 30.1 in /  1019.9 hPa Calm   3 mph /  4.8 km/h 70 % 0 in /  0.0 mm
22:17 69.1 °F /  20.6 °C 59.4 °F /  15.2 °C 30.1 in /  1019.9 hPa Calm   3 mph /  4.8 km/h 71 % 0 in /  0.0 mm
22:22 68.9 °F /  20.5 °C 59.2 °F /  15.1 °C 30.1 in /  1019.9 hPa Calm   3 mph /  4.8 km/h 71 % 0 in /  0.0 mm
22:32 68.7 °F /  20.4 °C 59 °F /  15.0 °C 30.1 in /  1020.2 hPa West 1 mph /  1.6 km/h 1 mph /  1.6 km/h 71 % 0 in /  0.0 mm
22:37 68.7 °F /  20.4 °C 59.4 °F /  15.2 °C 30.1 in /  1020.2 hPa Calm   2 mph /  3.2 km/h 72 % 0 in /  0.0 mm
22:42 68.5 °F /  20.3 °C 59.5 °F /  15.3 °C 30.1 in /  1020.2 hPa Calm   2 mph /  3.2 km/h 73 % 0 in /  0.0 mm
22:47 68.4 °F /  20.2 °C 59.4 °F /  15.2 °C 30.1 in /  1020.2 hPa Calm   2 mph /  3.2 km/h 73 % 0 in /  0.0 mm
22:52 68.4 °F /  20.2 °C 59.7 °F /  15.4 °C 30.1 in /  1020.5 hPa Calm   1 mph /  1.6 km/h 74 % 0 in /  0.0 mm
22:57 68.4 °F /  20.2 °C 59.4 °F /  15.2 °C 30.1 in /  1020.2 hPa Calm   1 mph /  1.6 km/h 73 % 0 in /  0.0 mm
23:02 68.2 °F /  20.1 °C 59.5 °F /  15.3 °C 30.1 in /  1020.5 hPa SW 1 mph /  1.6 km/h 1 mph /  1.6 km/h 74 % 0 in /  0.0 mm
23:07 68.2 °F /  20.1 °C 59.5 °F /  15.3 °C 30.1 in /  1020.5 hPa Calm   2 mph /  3.2 km/h 74 % 0 in /  0.0 mm
23:12 68.2 °F /  20.1 °C 59.5 °F /  15.3 °C 30.1 in /  1020.5 hPa Calm   2 mph /  3.2 km/h 74 % 0 in /  0.0 mm
23:17 68.2 °F /  20.1 °C 59.5 °F /  15.3 °C 30.1 in /  1020.2 hPa SW 2 mph /  3.2 km/h 2 mph /  3.2 km/h 74 % 0 in /  0.0 mm
23:22 68.2 °F /  20.1 °C 59.9 °F /  15.5 °C 30.1 in /  1020.2 hPa Calm   2 mph /  3.2 km/h 75 % 0 in /  0.0 mm
23:32 68.2 °F /  20.1 °C 60.3 °F /  15.7 °C 30.1 in /  1020.5 hPa WNW 1 mph /  1.6 km/h 2 mph /  3.2 km/h 76 % 0 in /  0.0 mm
23:37 68.2 °F /  20.1 °C 59.9 °F /  15.5 °C 30.1 in /  1020.5 hPa West 2 mph /  3.2 km/h 5 mph /  8.0 km/h 75 % 0 in /  0.0 mm
23:42 68.4 °F /  20.2 °C 59.7 °F /  15.4 °C 30.1 in /  1020.5 hPa West 1 mph /  1.6 km/h 8 mph /  12.9 km/h 74 % 0 in /  0.0 mm
23:47 68.4 °F /  20.2 °C 59.7 °F /  15.4 °C 30.1 in /  1020.5 hPa WNW 4 mph /  6.4 km/h 8 mph /  12.9 km/h 74 % 0 in /  0.0 mm
23:52 68.4 °F /  20.2 °C 60.1 °F /  15.6 °C 30.1 in /  1020.5 hPa WSW 3 mph /  4.8 km/h 8 mph /  12.9 km/h 75 % 0 in /  0.0 mm
23:57 68.4 °F /  20.2 °C 60.1 °F /  15.6 °C 30.1 in /  1020.5 hPa WSW 2 mph /  3.2 km/h 6 mph /  9.7 km/h 75 % 0 in /  0.0 mm
Meteo18
Compliments of Weather Underground - 4 mb

Script developed by  Jim McMurry - jmcmurry@mwt.net Adapted for the template by  Wim van der Kuil - Leuven-Template.eu

You find our weather info also at:

European Weather Network

Weather Underground

Equipment we use:

Weather-station
Davis Vue

Weather-program
Meteobridge

Weather-server
Raspberry PI 2 B+

Provider
1 and 1

Davis Vue

Meteobridge

Raspberry PI 2 B+

1 and 1